Terminal Aerodrome Forecast
Issued by NWS

Home | Current Version | Previous Version | Text Only | Print | Product List | Glossary Off
Versions: 1 2 3 4 5 6 7 8 9 10 11 12 13 14 15 16 17 18 19 20 21 22 23 24 25 26 27 28 29 30 31 32 33 34 35 36 37 38 39

000
FTUS43 KLOT 182100 AAB
TAFORD
TAF AMD
KORD 182136Z 1822/1924 22008KT P6SM SCT040
     FM190000 18005KT P6SM FEW040
     FM190300 19006KT P6SM VCSH BKN040 BKN100
     FM190500 19006KT 5SM -TSRA BKN035CB
     FM190900 20007KT 6SM BR BKN035
     FM191500 22012G18KT P6SM VCSH BKN035 PROB30 1916/1919 -TSRA
      BKN035CB
     FM192000 24013G19KT P6SM BKN040=

USA.gov is the U.S. government's official web portal to all federal, state and local government web resources and services.